Elkins-Randolph Co-Jennings Randolph Field
KEKN : now visible

Airfield :











YOU CAN JOIN US ON...

 
LOGIN :

Register | Disclaimer

   EN    FR    IT 

 









Legend :    VFR   Marginal VFR   IFR   Intensive IFR   Very Intensive IFR
Visi :
Ceiling :
>= 8 km
>= 3000ft
5 to 8 km
1000 to 3000 ft
1500m to 5 km
500 to 1000 ft
800 to 1500m
200 to 500 ft
< 800m
< 200 ft
Symbols :   Thunderstorms  Fog  Heavy snow  Heavy precipitations  Wind > 20 kt






- Airport Elevation : 1987 ft


KEKN - Elkins-Randolph Co-Jennings Randolph Field

CURRENT METAR :
  • 030759Z AUTO 00000KT 8SM -RA BKN013 OVC017 19/18 A3010 RMK AO2 P0000 T01940183

EXPIRED METARs :
  • 030751Z AUTO 00000KT 7SM -RA OVC015 19/18 A3011 RMK AO2 RAB26 SLP184 P0013 T01940183
  • 030730Z AUTO 34003KT 1 3/4SM +RA BR OVC017 19/18 A3011 RMK AO2 VIS 3/4V5 RAB26 P0003 T01940183
  • 030651Z AUTO 30003KT 10SM SCT018 BKN027 BKN045 20/18 A3010 RMK AO2 SLP183 T02000178
  • 030625Z AUTO 00000KT 10SM BKN028 BKN037 OVC045 19/18 A3010 RMK AO2 T01940183
  • 030551Z AUTO 00000KT 10SM FEW018 FEW025 SCT040 20/18 A3010 RMK AO2 SLP181 T02000178 10222 20189 51005

TAF KEKN
Valid from the 03 at 08:00 until the 04 at 06:00 UTC


030828Z 0308/0406 00000KT 6SM -SHRA BR BKN012
TEMPO 0308/0310 2SM -SHRA BR BKN008
FM031000 00000KT 4SM BR BKN005
TEMPO 0310/0312 1 1/2SM BR OVC002
FM031200 00000KT 3SM BR BKN003
FM031300 00000KT P6SM BKN090
FM031600 VRB03KT P6SM SCT120
FM031900 33005KT P6SM SKC
FM040000 00000KT P6SM SKC
KZDC FIR / North America



MET'MAP, your aeronautical weather chart ! - Copyright ORBIFLY December 2007 - Disclaimer

ORBIFLY MET'MAP TEAM :

Programming & Development : Alexandra Zaïnal
Original concept : Baudouin d'Aumeries
Technical & hardware support : Manuel Goepfert
Assistance : Marc-Olivier Méhu




SOURCES & CREDITS :

   NOAA       Earth
Advisory